createdAt,value
2023-01-11T00:01:21.476Z,159.10
2023-01-11T00:03:49.378Z,151.47
2023-01-11T00:06:17.023Z,163.30
2023-01-11T00:08:46.035Z,148.33
2023-01-11T00:11:14.687Z,153.97
2023-01-11T00:13:42.511Z,151.20
2023-01-11T00:16:10.973Z,149.17
2023-01-11T00:18:40.861Z,130.40
2023-01-11T00:21:08.918Z,147.73
2023-01-11T00:23:38.040Z,144.77
2023-01-11T00:26:07.334Z,150.00
2023-01-11T00:28:35.134Z,136.53
2023-01-11T00:31:03.075Z,148.70
2023-01-11T00:33:31.027Z,148.43
2023-01-11T00:36:00.065Z,152.93
2023-01-11T00:38:51.290Z,159.13
2023-01-11T00:41:37.165Z,149.93
2023-01-11T00:44:23.399Z,150.40
2023-01-11T00:47:09.062Z,152.43
2023-01-11T00:49:36.803Z,158.20
2023-01-11T00:52:08.844Z,161.00
2023-01-11T00:54:36.717Z,163.67
2023-01-11T00:57:06.407Z,157.37
2023-01-11T00:59:34.250Z,170.47
2023-01-11T01:02:02.067Z,168.80
2023-01-11T01:04:29.768Z,177.73
2023-01-11T01:06:57.570Z,182.27
2023-01-11T01:09:28.343Z,178.43
2023-01-11T01:11:56.036Z,181.13
2023-01-11T01:14:25.918Z,167.73
2023-01-11T01:16:54.387Z,161.57
2023-01-11T01:19:23.310Z,163.37
2023-01-11T01:21:51.702Z,154.23
2023-01-11T01:24:19.404Z,159.70
2023-01-11T01:26:48.374Z,166.30
2023-01-11T01:29:16.222Z,146.90
2023-01-11T01:31:44.485Z,150.90
2023-01-11T01:34:12.639Z,150.13
2023-01-11T01:36:40.582Z,163.03
2023-01-11T01:39:09.165Z,149.47
2023-01-11T01:41:37.087Z,157.80
2023-01-11T01:44:26.862Z,153.70
2023-01-11T01:46:56.121Z,156.93
2023-01-11T01:49:23.792Z,151.83
2023-01-11T01:51:55.699Z,155.60
2023-01-11T01:54:28.568Z,171.93
2023-01-11T01:57:00.308Z,156.67
2023-01-11T01:59:31.171Z,156.03
2023-01-11T02:02:01.738Z,163.00
2023-01-11T02:04:33.407Z,165.57
2023-01-11T02:07:04.577Z,179.83
2023-01-11T02:09:37.167Z,172.93
2023-01-11T02:12:06.756Z,170.47
2023-01-11T02:14:36.560Z,163.20
2023-01-11T02:17:05.650Z,178.97
2023-01-11T02:19:50.238Z,177.23
2023-01-11T02:23:10.529Z,172.57
2023-01-11T02:26:11.876Z,174.13
2023-01-11T02:28:48.645Z,176.10
2023-01-11T02:31:26.579Z,183.97
2023-01-11T02:34:06.057Z,157.10
2023-01-11T02:36:44.345Z,159.43
2023-01-11T02:39:22.330Z,168.33
2023-01-11T02:42:14.646Z,179.20
2023-01-11T02:45:02.678Z,172.33
2023-01-11T02:47:39.669Z,172.17
2023-01-11T02:50:18.335Z,175.00
2023-01-11T02:52:55.348Z,175.27
2023-01-11T02:55:25.902Z,173.17
2023-01-11T02:57:55.569Z,173.17
2023-01-11T03:00:25.782Z,185.47
2023-01-11T03:03:15.243Z,170.70
2023-01-11T03:05:47.122Z,182.27
2023-01-11T03:08:48.445Z,172.70
2023-01-11T03:11:43.580Z,157.67
2023-01-11T03:14:19.737Z,165.93
2023-01-11T03:16:56.471Z,171.73
2023-01-11T03:19:34.623Z,152.00
2023-01-11T03:22:08.839Z,167.97
2023-01-11T03:24:44.843Z,183.03
2023-01-11T03:27:22.687Z,173.07
2023-01-11T03:29:54.625Z,167.40
2023-01-11T03:32:33.505Z,176.87
2023-01-11T03:35:14.462Z,161.13
2023-01-11T03:37:47.878Z,167.33
2023-01-11T03:40:18.943Z,160.83
2023-01-11T03:43:07.501Z,172.87
2023-01-11T03:45:39.415Z,168.83
2023-01-11T03:48:12.089Z,175.23
2023-01-11T03:50:41.324Z,179.23
2023-01-11T03:53:10.029Z,184.23
2023-01-11T03:55:40.661Z,185.03
2023-01-11T03:58:09.731Z,180.17
2023-01-11T04:00:38.730Z,181.57
2023-01-11T04:03:09.583Z,183.10
2023-01-11T04:05:39.614Z,186.47
2023-01-11T04:08:07.381Z,194.40
2023-01-11T04:10:35.092Z,183.47
2023-01-11T04:13:02.900Z,185.43
2023-01-11T04:15:31.893Z,206.17
2023-01-11T04:18:04.654Z,182.00
2023-01-11T04:20:34.463Z,193.00
2023-01-11T04:23:02.378Z,200.27
2023-01-11T04:25:30.450Z,200.67
2023-01-11T04:27:58.501Z,188.27
2023-01-11T04:30:26.997Z,177.97
2023-01-11T04:32:54.637Z,178.23
2023-01-11T04:35:22.318Z,190.30
2023-01-11T04:37:54.181Z,193.10
2023-01-11T04:40:21.999Z,181.17
2023-01-11T04:42:48.681Z,187.60
2023-01-11T04:45:16.568Z,165.60
2023-01-11T04:47:44.219Z,180.97
2023-01-11T04:50:12.786Z,173.67
2023-01-11T04:52:41.560Z,167.83
2023-01-11T04:55:10.807Z,191.87
2023-01-11T04:57:38.555Z,189.47
2023-01-11T05:00:10.609Z,191.50
2023-01-11T05:02:38.464Z,199.00
2023-01-11T05:05:07.839Z,193.33
2023-01-11T05:07:35.802Z,199.20
2023-01-11T05:10:03.981Z,193.10
2023-01-11T05:12:33.024Z,190.80
2023-01-11T05:15:00.719Z,189.17
2023-01-11T05:17:28.334Z,205.27
2023-01-11T05:19:55.922Z,190.80
2023-01-11T05:22:23.594Z,202.13
2023-01-11T05:24:51.225Z,207.47
2023-01-11T05:27:18.844Z,213.07
2023-01-11T05:29:47.814Z,192.27
2023-01-11T05:32:15.438Z,203.53
2023-01-11T05:34:43.074Z,216.13
2023-01-11T05:37:10.763Z,207.83
2023-01-11T05:39:38.408Z,203.23
2023-01-11T05:42:06.204Z,221.30
2023-01-11T05:44:51.487Z,221.93
2023-01-11T05:47:20.432Z,216.33
2023-01-11T05:49:48.100Z,196.83
2023-01-11T05:52:17.414Z,218.13
2023-01-11T05:54:45.058Z,195.83
2023-01-11T05:57:12.725Z,217.00
2023-01-11T05:59:40.379Z,214.00
2023-01-11T06:02:08.165Z,224.63
2023-01-11T06:04:37.271Z,237.50
2023-01-11T06:07:04.942Z,215.07
2023-01-11T06:09:32.651Z,238.00
2023-01-11T06:12:00.306Z,205.90
2023-01-11T06:14:28.029Z,213.17
2023-01-11T06:16:56.751Z,211.67
2023-01-11T06:19:24.429Z,222.73
2023-01-11T06:21:53.487Z,222.30
2023-01-11T06:24:21.461Z,230.73
2023-01-11T06:26:49.102Z,218.57
2023-01-11T06:29:16.847Z,218.27
2023-01-11T06:31:45.249Z,229.67
2023-01-11T06:34:13.039Z,230.73
2023-01-11T06:36:40.757Z,225.17
2023-01-11T06:39:10.748Z,217.70
2023-01-11T06:41:38.390Z,232.63
2023-01-11T06:44:06.889Z,246.33
2023-01-11T06:46:34.640Z,237.40
2023-01-11T06:49:03.189Z,235.77
2023-01-11T06:51:31.069Z,243.33
2023-01-11T06:53:58.730Z,253.20
2023-01-11T06:56:27.757Z,241.60
2023-01-11T06:58:55.469Z,242.27
2023-01-11T07:01:24.946Z,223.07
2023-01-11T07:03:52.831Z,247.47
2023-01-11T07:06:20.469Z,248.83
2023-01-11T07:08:48.192Z,239.00
2023-01-11T07:11:15.949Z,251.17
2023-01-11T07:13:45.056Z,240.97
2023-01-11T07:16:12.728Z,250.23
2023-01-11T07:18:40.482Z,238.67
2023-01-11T07:21:08.268Z,230.30
2023-01-11T07:23:35.966Z,245.27
2023-01-11T07:26:03.725Z,248.43
2023-01-11T07:28:31.543Z,244.83
2023-01-11T07:31:00.584Z,241.23
2023-01-11T07:33:28.793Z,217.87
2023-01-11T07:35:57.921Z,249.33
2023-01-11T07:38:25.651Z,250.53
2023-01-11T07:40:53.323Z,235.93
2023-01-11T07:43:23.012Z,237.00
2023-01-11T07:45:53.261Z,243.70
2023-01-11T07:48:26.606Z,228.67
2023-01-11T07:50:54.999Z,250.73
2023-01-11T07:53:25.594Z,239.30
2023-01-11T07:55:53.573Z,227.87
2023-01-11T07:58:21.287Z,236.27
2023-01-11T08:00:49.471Z,239.23
2023-01-11T08:03:17.225Z,245.13
2023-01-11T08:05:50.464Z,238.77
2023-01-11T08:08:18.338Z,237.53
2023-01-11T08:10:45.986Z,234.80
2023-01-11T08:13:32.714Z,240.47
2023-01-11T08:16:00.511Z,239.07
2023-01-11T08:18:28.295Z,251.57
2023-01-11T08:20:57.284Z,255.93
2023-01-11T08:23:25.444Z,243.93
2023-01-11T08:25:57.878Z,247.73
2023-01-11T08:28:25.748Z,252.13
2023-01-11T08:30:53.588Z,237.50
2023-01-11T08:33:21.450Z,242.40
2023-01-11T08:35:49.147Z,227.67
2023-01-11T08:38:18.128Z,232.87
2023-01-11T08:40:45.773Z,251.85
2023-01-11T08:43:13.424Z,241.80
2023-01-11T08:45:41.062Z,255.87
2023-01-11T08:48:08.700Z,229.90
2023-01-11T08:50:36.369Z,226.93
2023-01-11T08:53:04.268Z,236.03
2023-01-11T08:55:33.336Z,233.87
2023-01-11T08:58:01.101Z,242.05
2023-01-11T09:00:28.952Z,244.67
2023-01-11T09:02:56.685Z,244.90
2023-01-11T09:05:24.717Z,242.07
2023-01-11T09:07:52.370Z,232.97
2023-01-11T09:10:20.046Z,238.73
2023-01-11T09:12:49.723Z,254.13
2023-01-11T09:15:17.528Z,229.38
2023-01-11T09:17:45.249Z,239.80
2023-01-11T09:20:13.199Z,240.80
2023-01-11T09:22:41.702Z,238.18
2023-01-11T09:25:10.382Z,256.13
2023-01-11T09:27:38.111Z,236.70
2023-01-11T09:30:08.500Z,248.70
2023-01-11T09:32:36.226Z,237.70
2023-01-11T09:35:04.702Z,243.93
2023-01-11T09:37:32.655Z,250.93
2023-01-11T09:40:01.458Z,240.27
2023-01-11T09:42:36.480Z,250.80
2023-01-11T09:45:13.671Z,232.20
2023-01-11T09:47:45.787Z,235.83
2023-01-11T09:50:18.594Z,255.40
2023-01-11T09:52:51.875Z,223.03
2023-01-11T09:55:25.455Z,244.20
2023-01-11T09:58:05.170Z,246.53
2023-01-11T10:00:49.113Z,241.50
2023-01-11T10:03:54.520Z,252.57
2023-01-11T10:06:28.616Z,234.60
2023-01-11T10:18:26.731Z,237.73
2023-01-11T10:18:38.531Z,246.70
2023-01-11T10:21:13.335Z,257.33
2023-01-11T10:23:49.705Z,255.53
2023-01-11T10:26:27.578Z,274.43
2023-01-11T10:29:17.344Z,279.57
2023-01-11T10:32:06.312Z,283.87
2023-01-11T10:34:59.569Z,262.57
2023-01-11T10:37:48.087Z,266.83
2023-01-11T10:40:35.205Z,271.43
2023-01-11T10:43:09.896Z,255.80
2023-01-11T10:45:43.401Z,277.47
2023-01-11T10:48:16.991Z,271.13
2023-01-11T10:50:51.877Z,261.03
2023-01-11T10:53:26.131Z,272.33
2023-01-11T10:56:02.420Z,286.67
2023-01-11T10:58:53.249Z,273.13
2023-01-11T11:01:38.410Z,282.47
2023-01-11T11:04:25.071Z,266.53
2023-01-11T11:07:06.328Z,270.63
2023-01-11T11:09:43.173Z,286.13
2023-01-11T11:12:15.801Z,283.63
2023-01-11T11:14:51.461Z,271.95
2023-01-11T11:17:25.574Z,285.90
2023-01-11T11:19:54.205Z,280.53
2023-01-11T11:22:23.279Z,288.23
2023-01-11T11:24:55.614Z,307.17
2023-01-11T11:27:29.666Z,288.70
2023-01-11T11:29:58.163Z,296.55
2023-01-11T11:32:29.905Z,289.47
2023-01-11T11:34:58.093Z,317.83
2023-01-11T11:37:32.433Z,308.10
2023-01-11T11:40:00.329Z,312.35
2023-01-11T11:42:28.450Z,305.02
2023-01-11T11:45:14.549Z,299.75
2023-01-11T11:47:43.519Z,295.45
2023-01-11T11:50:43.123Z,303.70
2023-01-11T11:53:24.600Z,300.15
2023-01-11T11:55:53.646Z,299.15
2023-01-11T11:58:25.943Z,310.45
2023-01-11T12:00:54.402Z,312.52
2023-01-11T12:03:28.265Z,298.08
2023-01-11T12:06:00.641Z,303.48
2023-01-11T12:08:32.488Z,291.33
2023-01-11T12:11:03.545Z,301.13
2023-01-11T12:13:34.189Z,307.88
2023-01-11T12:16:04.145Z,316.85
2023-01-11T12:18:41.211Z,306.65
2023-01-11T12:21:20.648Z,282.13
2023-01-11T12:24:03.709Z,302.38
2023-01-11T12:26:39.692Z,291.50
2023-01-11T12:29:29.522Z,300.85
2023-01-11T12:32:11.946Z,312.92
2023-01-11T12:34:57.778Z,302.33
2023-01-11T12:37:42.587Z,295.83
2023-01-11T12:40:20.286Z,288.42
2023-01-11T12:43:01.380Z,296.45
2023-01-11T12:45:39.759Z,290.33
2023-01-11T12:48:33.083Z,313.38
2023-01-11T12:51:21.313Z,325.55
2023-01-11T12:54:10.875Z,289.52
2023-01-11T12:56:58.124Z,297.08
2023-01-11T12:59:57.692Z,284.08
2023-01-11T13:02:45.825Z,297.08
2023-01-11T13:05:24.404Z,300.13
2023-01-11T13:08:02.418Z,317.20
2023-01-11T13:10:37.770Z,306.90
2023-01-11T13:13:15.929Z,310.48
2023-01-11T13:15:54.236Z,309.50
2023-01-11T13:18:31.413Z,305.58
2023-01-11T13:21:05.637Z,299.77
2023-01-11T13:23:42.937Z,298.13
2023-01-11T13:26:22.522Z,301.85
2023-01-11T13:28:56.990Z,296.98
2023-01-11T13:31:25.751Z,315.88
2023-01-11T13:33:58.672Z,298.25
2023-01-11T13:36:30.976Z,317.02
2023-01-11T13:39:04.132Z,329.10
2023-01-11T13:41:38.705Z,334.90
2023-01-11T13:44:16.112Z,311.92
2023-01-11T13:46:54.747Z,309.00
2023-01-11T13:49:39.659Z,313.95
2023-01-11T13:52:14.895Z,316.52
2023-01-11T13:54:52.690Z,329.17
2023-01-11T13:57:25.801Z,307.08
2023-01-11T14:00:02.251Z,306.02
2023-01-11T14:02:44.494Z,308.23
2023-01-11T14:05:18.115Z,306.73
2023-01-11T14:08:00.688Z,321.70
2023-01-11T14:10:39.714Z,300.02
2023-01-11T14:13:48.899Z,298.52
2023-01-11T14:16:26.360Z,296.65
2023-01-11T14:19:04.567Z,293.15
2023-01-11T14:21:43.282Z,300.55
2023-01-11T14:24:13.121Z,282.63
2023-01-11T14:27:11.340Z,328.73
2023-01-11T14:29:59.225Z,307.97
2023-01-11T14:32:45.546Z,295.00
2023-01-11T14:35:43.138Z,294.75
2023-01-11T14:38:39.271Z,289.47
2023-01-11T14:41:32.434Z,305.48
2023-01-11T14:44:13.899Z,301.90
2023-01-11T14:47:04.954Z,291.05
2023-01-11T14:49:49.070Z,284.55
2023-01-11T14:52:34.560Z,295.35
2023-01-11T14:55:15.220Z,270.70
2023-01-11T14:57:44.346Z,308.60
2023-01-11T15:00:59.832Z,282.37
2023-01-11T15:03:50.373Z,273.35
2023-01-11T15:06:22.619Z,274.60
2023-01-11T15:08:53.441Z,274.07
2023-01-11T15:11:30.920Z,288.48
2023-01-11T15:14:04.942Z,279.80
2023-01-11T15:16:52.411Z,299.02
2023-01-11T15:19:32.266Z,289.45
2023-01-11T15:22:05.809Z,280.48
2023-01-11T15:24:37.389Z,267.00
2023-01-11T15:27:05.528Z,288.65
2023-01-11T15:29:36.298Z,284.40
2023-01-11T15:32:07.555Z,292.73
2023-01-11T15:34:44.012Z,288.40
2023-01-11T15:37:31.536Z,258.77
2023-01-11T15:40:04.024Z,258.83
2023-01-11T15:43:17.099Z,286.13
2023-01-11T15:46:33.008Z,267.65
2023-01-11T15:49:40.389Z,257.43
2023-01-11T15:52:53.351Z,261.43
2023-01-11T15:55:59.608Z,249.60
2023-01-11T15:58:57.259Z,261.50
2023-01-11T16:01:28.276Z,240.90
2023-01-11T16:04:04.829Z,258.07
2023-01-11T16:06:42.807Z,243.90
2023-01-11T16:09:38.425Z,257.45
2023-01-11T16:12:33.523Z,239.82
2023-01-11T16:15:30.729Z,229.67
2023-01-11T16:18:09.912Z,240.77
2023-01-11T16:20:37.948Z,230.32
2023-01-11T16:23:07.322Z,238.07
2023-01-11T16:25:38.281Z,238.77
2023-01-11T16:28:08.698Z,236.23
2023-01-11T16:30:36.689Z,234.90
2023-01-11T16:33:21.193Z,242.90
2023-01-11T16:35:49.182Z,215.17
2023-01-11T16:38:20.547Z,233.97
2023-01-11T16:40:51.007Z,223.63
2023-01-11T16:43:23.274Z,207.03
2023-01-11T16:45:54.001Z,224.70
2023-01-11T16:48:23.540Z,237.13
2023-01-11T16:51:01.333Z,242.20
2023-01-11T16:53:30.670Z,227.90
2023-01-11T16:56:05.331Z,230.68
2023-01-11T16:58:36.519Z,215.90
2023-01-11T17:01:06.989Z,238.37
2023-01-11T17:03:36.309Z,241.33
2023-01-11T17:06:17.948Z,233.70
2023-01-11T17:08:48.053Z,223.70
2023-01-11T17:11:24.254Z,242.37
2023-01-11T17:14:22.603Z,232.70
2023-01-11T17:16:52.773Z,216.23
2023-01-11T17:19:22.773Z,228.50
2023-01-11T17:21:53.557Z,250.77
2023-01-11T17:24:24.790Z,231.73
2023-01-11T17:26:55.986Z,242.50
2023-01-11T17:29:30.916Z,240.73
2023-01-11T17:32:00.797Z,232.97
2023-01-11T17:34:31.954Z,230.73
2023-01-11T17:37:00.433Z,239.70
2023-01-11T17:39:31.843Z,233.80
2023-01-11T17:42:19.407Z,232.77
2023-01-11T17:45:08.639Z,229.37
2023-01-11T17:47:39.464Z,222.13
2023-01-11T17:50:18.475Z,216.13
2023-01-11T17:52:54.532Z,238.17
2023-01-11T17:55:25.557Z,234.77
2023-01-11T17:58:19.815Z,216.37
2023-01-11T18:01:10.758Z,217.40
2023-01-11T18:03:43.869Z,221.23
2023-01-11T18:06:13.808Z,216.83
2023-01-11T18:08:47.545Z,224.23
2023-01-11T18:11:24.050Z,226.17
2023-01-11T18:13:53.158Z,201.93
2023-01-11T18:16:23.383Z,224.60
2023-01-11T18:18:53.798Z,225.73
2023-01-11T18:21:52.084Z,200.37
2023-01-11T18:24:42.975Z,215.87
2023-01-11T18:27:26.920Z,200.33
2023-01-11T18:29:56.278Z,208.87
2023-01-11T18:32:25.802Z,200.40
2023-01-11T18:34:55.438Z,205.53
2023-01-11T18:37:23.410Z,212.13
2023-01-11T18:39:52.608Z,220.93
2023-01-11T18:42:23.642Z,207.83
2023-01-11T18:44:51.332Z,212.80
2023-01-11T18:47:21.854Z,226.23
2023-01-11T18:49:52.306Z,214.13
2023-01-11T18:52:24.439Z,205.17
2023-01-11T18:54:52.335Z,217.40
2023-01-11T18:57:20.278Z,215.80
2023-01-11T18:59:48.017Z,208.23
2023-01-11T19:02:22.608Z,219.47
2023-01-11T19:04:52.390Z,221.17
2023-01-11T19:07:20.144Z,210.37
2023-01-11T19:09:47.922Z,223.90
2023-01-11T19:12:16.265Z,215.93
2023-01-11T19:14:44.341Z,212.13
2023-01-11T19:17:13.295Z,192.70
2023-01-11T19:19:41.524Z,189.87
2023-01-11T19:22:12.245Z,197.23
2023-01-11T19:24:40.451Z,188.87
2023-01-11T19:27:08.294Z,202.50
2023-01-11T19:29:36.040Z,192.60
2023-01-11T19:32:03.689Z,194.10
2023-01-11T19:34:33.617Z,200.60
2023-01-11T19:37:01.538Z,199.63
2023-01-11T19:39:30.510Z,203.93
2023-01-11T19:41:59.828Z,203.33
2023-01-11T19:44:30.493Z,209.40
2023-01-11T19:47:10.405Z,197.87
2023-01-11T19:49:39.931Z,207.87
2023-01-11T19:52:12.192Z,205.80
2023-01-11T19:54:42.796Z,207.43
2023-01-11T19:57:12.163Z,209.03
2023-01-11T19:59:39.849Z,203.13
2023-01-11T20:02:08.254Z,210.57
2023-01-11T20:04:37.032Z,204.40
2023-01-11T20:07:04.691Z,207.90
2023-01-11T20:09:32.391Z,229.00
2023-01-11T20:12:01.388Z,216.43
2023-01-11T20:14:29.396Z,198.63
2023-01-11T20:16:57.072Z,208.77
2023-01-11T20:19:24.667Z,210.03
2023-01-11T20:21:52.371Z,209.77
2023-01-11T20:24:20.021Z,203.93
2023-01-11T20:26:47.754Z,190.57
2023-01-11T20:29:16.750Z,217.20
2023-01-11T20:31:44.541Z,206.30
2023-01-11T20:34:13.329Z,209.17
2023-01-11T20:36:42.026Z,190.77
2023-01-11T20:39:10.525Z,207.60
2023-01-11T20:41:47.677Z,199.93
2023-01-11T20:44:19.202Z,208.87
2023-01-11T20:46:48.389Z,205.60
2023-01-11T20:49:16.734Z,188.47
2023-01-11T20:51:45.633Z,218.50
2023-01-11T20:54:13.916Z,218.23
2023-01-11T20:56:41.796Z,197.73
2023-01-11T21:01:39.475Z,218.87
2023-01-11T21:04:08.912Z,194.90
2023-01-11T21:06:43.762Z,209.70
2023-01-11T21:09:14.280Z,204.30
2023-01-11T21:11:42.591Z,188.73
2023-01-11T21:14:12.085Z,192.07
2023-01-11T21:16:44.120Z,182.83
2023-01-11T21:19:13.295Z,177.00
2023-01-11T21:21:41.688Z,178.17
2023-01-11T21:24:11.492Z,173.63
2023-01-11T21:26:39.334Z,177.63
2023-01-11T21:29:07.265Z,184.83
2023-01-11T21:31:36.532Z,189.77
2023-01-11T21:34:05.735Z,173.80
2023-01-11T21:36:34.222Z,185.47
2023-01-11T21:39:02.543Z,200.57
2023-01-11T21:42:01.604Z,178.17
2023-01-11T21:44:33.137Z,177.57
2023-01-11T21:47:01.629Z,186.50
2023-01-11T21:49:30.794Z,177.83
2023-01-11T21:51:58.747Z,170.13
2023-01-11T21:54:26.664Z,175.93
2023-01-11T21:56:54.341Z,179.87
2023-01-11T21:59:22.357Z,180.70
2023-01-11T22:01:50.197Z,184.17
2023-01-11T22:04:19.701Z,195.07
2023-01-11T22:06:54.074Z,174.23
2023-01-11T22:09:22.136Z,184.03
2023-01-11T22:11:50.985Z,183.23
2023-01-11T22:14:19.037Z,183.80
2023-01-11T22:16:46.856Z,193.57
2023-01-11T22:19:15.097Z,177.60
2023-01-11T22:21:42.920Z,179.13
2023-01-11T22:24:12.910Z,185.37
2023-01-11T22:26:40.916Z,179.20
2023-01-11T22:29:12.838Z,177.20
2023-01-11T22:31:42.192Z,195.90
2023-01-11T22:34:10.229Z,168.27
2023-01-11T22:36:37.982Z,156.80
2023-01-11T22:39:05.880Z,169.77
2023-01-11T22:41:34.886Z,179.03
2023-01-11T22:44:02.736Z,171.40
2023-01-11T22:46:30.496Z,177.10
2023-01-11T22:48:58.663Z,177.90
2023-01-11T22:51:27.373Z,177.50
2023-01-11T22:53:56.358Z,166.07
2023-01-11T22:56:26.008Z,183.50
2023-01-11T22:58:55.233Z,165.20
2023-01-11T23:01:24.810Z,168.47
2023-01-11T23:03:53.482Z,174.97
2023-01-11T23:06:23.633Z,166.33
2023-01-11T23:08:51.639Z,170.17
2023-01-11T23:11:35.352Z,174.73
2023-01-11T23:14:05.723Z,163.03
2023-01-11T23:16:34.026Z,164.23
2023-01-11T23:19:01.854Z,177.63
2023-01-11T23:21:29.631Z,184.03
2023-01-11T23:23:57.286Z,178.60
2023-01-11T23:26:25.069Z,178.03
2023-01-11T23:28:52.779Z,181.63
2023-01-11T23:31:25.119Z,185.60
2023-01-11T23:33:54.649Z,192.73
2023-01-11T23:36:23.904Z,192.83
2023-01-11T23:38:52.023Z,191.77
2023-01-11T23:41:39.053Z,200.67
2023-01-11T23:44:09.030Z,182.80
2023-01-11T23:46:56.598Z,190.03
2023-01-11T23:49:24.669Z,199.20
2023-01-11T23:51:52.684Z,176.73
2023-01-11T23:54:20.608Z,189.30
2023-01-11T23:56:48.889Z,192.93
2023-01-11T23:59:16.647Z,195.77
